createdAt,value
2022-08-17T00:00:49.312Z,1549.6
2022-08-17T00:01:51.687Z,1549.8
2022-08-17T00:02:43.131Z,1549.7
2022-08-17T00:03:42.272Z,1549.6
2022-08-17T00:04:44.858Z,1549.7
2022-08-17T00:05:42.272Z,1549.6
2022-08-17T00:06:42.280Z,1549.7
2022-08-17T00:07:42.338Z,1549.6
2022-08-17T00:08:42.281Z,1549.4
2022-08-17T00:09:42.284Z,1549.3
2022-08-17T00:10:42.277Z,1549.1
2022-08-17T00:11:42.277Z,1549
2022-08-17T00:12:44.664Z,1548.8
2022-08-17T00:13:42.275Z,1548.9
2022-08-17T00:14:42.272Z,1549.1
2022-08-17T00:15:42.279Z,1549
2022-08-17T00:16:56.436Z,1548.9
2022-08-17T00:17:42.279Z,1548.8
2022-08-17T00:19:02.200Z,1548.9
2022-08-17T00:19:42.301Z,1549.1
2022-08-17T00:20:42.280Z,1549.1
2022-08-17T00:22:31.939Z,1548.9
2022-08-17T00:22:42.281Z,1548.8
2022-08-17T00:23:44.414Z,1548.7
2022-08-17T00:24:42.288Z,1548.7
2022-08-17T00:25:42.283Z,1548.6
2022-08-17T00:26:45.039Z,1548.7
2022-08-17T00:27:42.290Z,1548.7
2022-08-17T00:28:42.284Z,1548.5
2022-08-17T00:30:50.940Z,1548.2
2022-08-17T00:31:42.289Z,1548.2
2022-08-17T00:33:13.603Z,1548.2
2022-08-17T00:33:42.292Z,1548.2
2022-08-17T00:34:42.305Z,1548.2
2022-08-17T00:35:42.284Z,1548.1
2022-08-17T00:36:42.290Z,1548.1
2022-08-17T00:37:42.288Z,1548
2022-08-17T00:38:42.293Z,1548.1
2022-08-17T00:39:42.350Z,1548.2
2022-08-17T00:40:44.890Z,1548.3
2022-08-17T00:41:42.834Z,1548.4
2022-08-17T00:42:42.447Z,1548.4
2022-08-17T00:43:42.300Z,1548.1
2022-08-17T00:44:42.289Z,1548.2
2022-08-17T00:45:42.296Z,1548.2
2022-08-17T00:46:42.313Z,1547.8
2022-08-17T00:47:42.297Z,1548
2022-08-17T00:48:42.296Z,1548.1
2022-08-17T00:49:42.302Z,1548.2
2022-08-17T00:50:42.292Z,1548.3
2022-08-17T00:51:42.305Z,1547.8
2022-08-17T00:52:42.333Z,1548
2022-08-17T00:53:42.296Z,1548.1
2022-08-17T00:54:42.669Z,1548.1
2022-08-17T00:55:42.301Z,1548
2022-08-17T00:56:42.303Z,1548.2
2022-08-17T00:57:42.296Z,1548.4
2022-08-17T00:58:42.299Z,1548.2
2022-08-17T00:59:42.301Z,1548.3
2022-08-17T01:00:42.365Z,1548.2
2022-08-17T01:01:42.297Z,1548.2
2022-08-17T01:02:42.955Z,1548.2
2022-08-17T01:03:42.301Z,1548.3
2022-08-17T01:04:42.302Z,1548.1
2022-08-17T01:05:42.665Z,1547.9
2022-08-17T01:06:42.308Z,1548.1
2022-08-17T01:08:42.319Z,1547.6
2022-08-17T01:09:42.307Z,1547.5
2022-08-17T01:10:58.797Z,1547.7
2022-08-17T01:12:42.381Z,1548
2022-08-17T01:13:42.312Z,1547.8
2022-08-17T01:14:42.308Z,1547.8
2022-08-17T01:15:42.305Z,1547.8
2022-08-17T01:16:42.311Z,1547.5
2022-08-17T01:17:42.335Z,1547.5
2022-08-17T01:18:42.309Z,1547.5
2022-08-17T01:19:42.316Z,1547.4
2022-08-17T01:20:48.090Z,1547
2022-08-17T01:21:42.318Z,1547
2022-08-17T01:22:42.338Z,1547.3
2022-08-17T01:23:42.335Z,1547.3
2022-08-17T01:24:42.308Z,1547.2
2022-08-17T01:25:42.312Z,1547
2022-08-17T01:26:42.309Z,1547.1
2022-08-17T01:28:53.965Z,1546.9
2022-08-17T01:29:42.317Z,1546.8
2022-08-17T01:30:56.881Z,1546.4
2022-08-17T01:31:42.325Z,1546.4
2022-08-17T01:32:42.407Z,1546.1
2022-08-17T01:33:42.323Z,1546.3
2022-08-17T01:34:43.569Z,1546.4
2022-08-17T01:35:42.322Z,1546.3
2022-08-17T01:36:42.318Z,1546.2
2022-08-17T01:37:42.312Z,1546.1
2022-08-17T01:38:42.323Z,1546.1
2022-08-17T01:39:42.412Z,1545.7
2022-08-17T01:40:42.321Z,1546
2022-08-17T01:41:42.321Z,1546
2022-08-17T01:42:42.397Z,1546
2022-08-17T01:43:42.329Z,1546.1
2022-08-17T01:44:42.320Z,1546
2022-08-17T01:45:42.326Z,1546.2
2022-08-17T01:46:42.324Z,1546
2022-08-17T01:47:42.327Z,1545.9
2022-08-17T01:48:42.322Z,1545.9
2022-08-17T01:49:42.328Z,1545.5
2022-08-17T01:50:42.325Z,1545.4
2022-08-17T01:51:42.333Z,1545.2
2022-08-17T01:52:42.425Z,1545.3
2022-08-17T01:54:42.335Z,1545.5
2022-08-17T01:55:42.332Z,1545.1
2022-08-17T01:56:42.333Z,1545
2022-08-17T01:57:42.331Z,1545
2022-08-17T01:58:42.338Z,1545
2022-08-17T02:01:00.196Z,1545
2022-08-17T02:01:42.361Z,1545.2
2022-08-17T02:02:42.358Z,1545
2022-08-17T02:03:42.338Z,1545.1
2022-08-17T02:04:42.331Z,1544.6
2022-08-17T02:05:42.333Z,1544.7
2022-08-17T02:06:52.782Z,1544.8
2022-08-17T02:08:00.339Z,1544.7
2022-08-17T02:09:01.585Z,1544.7
2022-08-17T02:10:46.794Z,1544.7
2022-08-17T02:11:42.358Z,1544.4
2022-08-17T02:12:42.340Z,1544.4
2022-08-17T02:13:42.331Z,1544.4
2022-08-17T02:14:42.341Z,1544.2
2022-08-17T02:15:42.342Z,1544.2
2022-08-17T02:16:42.355Z,1544.2
2022-08-17T02:17:42.337Z,1544.1
2022-08-17T02:18:42.343Z,1544.2
2022-08-17T02:19:42.348Z,1544.1
2022-08-17T02:20:42.939Z,1543.6
2022-08-17T02:21:42.339Z,1543.9
2022-08-17T02:22:42.401Z,1543.9
2022-08-17T02:23:42.349Z,1543.9
2022-08-17T02:24:59.705Z,1543.9
2022-08-17T02:25:42.350Z,1543.6
2022-08-17T02:26:42.353Z,1543.8
2022-08-17T02:27:42.346Z,1543.6
2022-08-17T02:28:42.343Z,1543.4
2022-08-17T02:29:42.348Z,1543.6
2022-08-17T02:31:00.993Z,1543.6
2022-08-17T02:31:42.347Z,1543.7
2022-08-17T02:32:42.424Z,1543.7
2022-08-17T02:33:43.737Z,1543.6
2022-08-17T02:34:42.344Z,1543.6
2022-08-17T02:35:42.350Z,1543.4
2022-08-17T02:36:42.352Z,1543.5
2022-08-17T02:37:42.361Z,1543.5
2022-08-17T02:38:42.351Z,1543.7
2022-08-17T02:39:42.411Z,1543.6
2022-08-17T02:40:42.358Z,1543.3
2022-08-17T02:41:42.352Z,1543.2
2022-08-17T02:42:42.407Z,1543.2
2022-08-17T02:43:42.354Z,1543.1
2022-08-17T02:44:42.353Z,1543.2
2022-08-17T02:45:42.348Z,1543.1
2022-08-17T02:46:42.356Z,1543.2
2022-08-17T02:47:42.374Z,1543.5
2022-08-17T02:49:46.286Z,1543
2022-08-17T02:50:42.350Z,1543.2
2022-08-17T02:51:42.357Z,1543.1
2022-08-17T02:52:44.012Z,1543.2
2022-08-17T02:53:42.356Z,1543.2
2022-08-17T02:54:42.600Z,1543
2022-08-17T02:55:42.366Z,1543.1
2022-08-17T02:56:42.356Z,1543.1
2022-08-17T02:57:42.362Z,1542.9
2022-08-17T02:58:42.363Z,1543.1
2022-08-17T02:59:48.370Z,1543.3
2022-08-17T03:00:42.361Z,1543
2022-08-17T03:01:42.454Z,1543.2
2022-08-17T03:02:42.440Z,1543.2
2022-08-17T03:03:42.379Z,1543.2
2022-08-17T03:04:42.361Z,1543.2
2022-08-17T03:05:42.359Z,1543.2
2022-08-17T03:06:42.358Z,1543.3
2022-08-17T03:07:42.364Z,1543.5
2022-08-17T03:08:42.367Z,1543.3
2022-08-17T03:09:42.367Z,1543
2022-08-17T03:10:42.371Z,1543.1
2022-08-17T03:11:42.364Z,1543.2
2022-08-17T03:12:42.451Z,1543
2022-08-17T03:13:42.365Z,1543
2022-08-17T03:14:42.369Z,1543.1
2022-08-17T03:15:43.775Z,1543
2022-08-17T03:16:42.362Z,1543.1
2022-08-17T03:17:42.369Z,1543
2022-08-17T03:18:42.365Z,1543
2022-08-17T03:19:43.044Z,1543
2022-08-17T03:20:42.364Z,1543.1
2022-08-17T03:21:42.374Z,1542.8
2022-08-17T03:23:42.373Z,1542.9
2022-08-17T03:24:42.369Z,1542.8
2022-08-17T03:25:42.367Z,1542.8
2022-08-17T03:26:42.375Z,1542.8
2022-08-17T03:27:42.394Z,1542.7
2022-08-17T03:28:42.369Z,1542.7
2022-08-17T03:29:42.377Z,1542.6
2022-08-17T03:30:42.386Z,1542.5
2022-08-17T03:31:42.372Z,1542.5
2022-08-17T03:32:42.502Z,1542.6
2022-08-17T03:33:42.382Z,1542.6
2022-08-17T03:34:42.375Z,1542.8
2022-08-17T03:35:42.376Z,1542.9
2022-08-17T03:36:42.376Z,1543.1
2022-08-17T03:37:42.374Z,1543
2022-08-17T03:38:42.378Z,1542.9
2022-08-17T03:39:42.452Z,1543
2022-08-17T03:40:56.361Z,1543.1
2022-08-17T03:41:42.380Z,1543
2022-08-17T03:42:42.388Z,1542.8
2022-08-17T03:43:42.384Z,1542.8
2022-08-17T03:44:42.386Z,1542.8
2022-08-17T03:45:42.391Z,1542.6
2022-08-17T03:46:42.380Z,1542.7
2022-08-17T03:47:42.378Z,1542.6
2022-08-17T03:48:42.383Z,1542.5
2022-08-17T03:49:42.389Z,1542.4
2022-08-17T03:50:42.382Z,1542.5
2022-08-17T03:51:42.383Z,1542.5
2022-08-17T03:53:42.402Z,1542.8
2022-08-17T03:54:42.396Z,1542.8
2022-08-17T03:55:42.386Z,1542.7
2022-08-17T03:56:42.394Z,1542.6
2022-08-17T03:57:42.393Z,1542.5
2022-08-17T03:58:42.387Z,1542.8
2022-08-17T03:59:42.384Z,1542.5
2022-08-17T04:00:42.389Z,1542.5
2022-08-17T04:01:42.529Z,1542.4
2022-08-17T04:02:42.390Z,1542.4
2022-08-17T04:03:42.389Z,1542.4
2022-08-17T04:04:42.388Z,1542.3
2022-08-17T04:05:42.389Z,1542.3
2022-08-17T04:07:42.392Z,1542.3
2022-08-17T04:08:42.394Z,1542.3
2022-08-17T04:09:42.393Z,1542.2
2022-08-17T04:11:42.400Z,1542.3
2022-08-17T04:12:42.724Z,1542.1
2022-08-17T04:13:42.402Z,1542.1
2022-08-17T04:14:52.890Z,1542.1
2022-08-17T04:15:42.392Z,1541.9
2022-08-17T04:16:42.390Z,1541.9
2022-08-17T04:17:42.397Z,1541.9
2022-08-17T04:19:42.399Z,1542
2022-08-17T04:20:42.393Z,1541.8
2022-08-17T04:21:42.397Z,1541.9
2022-08-17T04:22:42.396Z,1541.7
2022-08-17T04:23:42.400Z,1541.7
2022-08-17T04:24:42.400Z,1541.6
2022-08-17T04:25:42.401Z,1541.7
2022-08-17T04:26:50.582Z,1541.8
2022-08-17T04:27:42.402Z,1541.8
2022-08-17T04:28:42.401Z,1541.7
2022-08-17T04:29:54.291Z,1541.6
2022-08-17T04:30:42.403Z,1541.5
2022-08-17T04:33:03.393Z,1541.5
2022-08-17T04:33:42.407Z,1541.5
2022-08-17T04:34:42.406Z,1541.5
2022-08-17T04:35:42.398Z,1541.6
2022-08-17T04:36:42.411Z,1541.4
2022-08-17T04:37:42.410Z,1541.4
2022-08-17T04:38:42.413Z,1541.4
2022-08-17T04:39:42.549Z,1541.5
2022-08-17T04:40:42.409Z,1541.5
2022-08-17T04:41:43.254Z,1541.3
2022-08-17T04:42:42.456Z,1541.4
2022-08-17T04:43:42.407Z,1541.4
2022-08-17T04:44:42.402Z,1541.5
2022-08-17T04:45:55.067Z,1541.6
2022-08-17T04:47:42.410Z,1541.6
2022-08-17T04:48:42.408Z,1541.8
2022-08-17T04:49:42.408Z,1541.7
2022-08-17T04:50:42.410Z,1541.8
2022-08-17T04:51:45.577Z,1541.7
2022-08-17T04:52:43.674Z,1541.7
2022-08-17T04:53:42.411Z,1541.7
2022-08-17T04:54:42.422Z,1541.9
2022-08-17T04:55:42.417Z,1541.8
2022-08-17T04:56:42.417Z,1541.7
2022-08-17T04:57:45.093Z,1542
2022-08-17T04:58:42.420Z,1542
2022-08-17T04:59:42.410Z,1542
2022-08-17T05:00:42.414Z,1542
2022-08-17T05:01:42.483Z,1542.3
2022-08-17T05:02:49.969Z,1542.1
2022-08-17T05:03:42.417Z,1542
2022-08-17T05:05:42.416Z,1542
2022-08-17T05:06:42.424Z,1542
2022-08-17T05:07:42.416Z,1542.1
2022-08-17T05:09:42.421Z,1542.4
2022-08-17T05:10:45.503Z,1542.4
2022-08-17T05:12:42.496Z,1542.4
2022-08-17T05:14:42.433Z,1542.5
2022-08-17T05:15:45.121Z,1542.4
2022-08-17T05:16:42.431Z,1542.5
2022-08-17T05:17:42.422Z,1542.4
2022-08-17T05:19:42.423Z,1542.6
2022-08-17T05:20:42.446Z,1542.8
2022-08-17T05:21:42.426Z,1542.8
2022-08-17T05:22:42.442Z,1542.7
2022-08-17T05:23:43.509Z,1542.7
2022-08-17T05:24:43.495Z,1543.1
2022-08-17T05:25:42.435Z,1543.2
2022-08-17T05:26:42.433Z,1543.2
2022-08-17T05:27:42.428Z,1543.3
2022-08-17T05:28:42.425Z,1543.3
2022-08-17T05:29:42.431Z,1543.3
2022-08-17T05:30:42.437Z,1543.5
2022-08-17T05:31:42.433Z,1543.4
2022-08-17T05:32:42.436Z,1543.6
2022-08-17T05:33:44.542Z,1543.6
2022-08-17T05:34:42.433Z,1543.8
2022-08-17T05:35:42.435Z,1543.9
2022-08-17T05:36:44.460Z,1543.8
2022-08-17T05:37:42.441Z,1543.8
2022-08-17T05:38:42.436Z,1543.9
2022-08-17T05:39:42.495Z,1543.9
2022-08-17T05:40:42.442Z,1544
2022-08-17T05:41:42.438Z,1544.1
2022-08-17T05:42:42.480Z,1544.3
2022-08-17T05:43:42.444Z,1544.3
2022-08-17T05:44:42.447Z,1544.7
2022-08-17T05:45:55.726Z,1544.8
2022-08-17T05:46:42.438Z,1544.8
2022-08-17T05:47:42.449Z,1544.7
2022-08-17T05:48:42.440Z,1544.9
2022-08-17T05:49:42.440Z,1545
2022-08-17T05:51:42.459Z,1545.3
2022-08-17T05:53:42.448Z,1545.2
2022-08-17T05:54:42.446Z,1545.3
2022-08-17T05:55:42.442Z,1545.3
2022-08-17T05:56:42.446Z,1545.2
2022-08-17T05:57:47.522Z,1545.4
2022-08-17T05:58:42.441Z,1545.5
2022-08-17T05:59:42.470Z,1545.3
2022-08-17T06:00:42.590Z,1545.5
2022-08-17T06:01:42.441Z,1545.6
2022-08-17T06:02:47.479Z,1545.4
2022-08-17T06:03:42.446Z,1545.7
2022-08-17T06:04:42.452Z,1545.8
2022-08-17T06:05:42.449Z,1545.8
2022-08-17T06:06:42.452Z,1545.8
2022-08-17T06:07:42.454Z,1545.7
2022-08-17T06:08:42.462Z,1545.9
2022-08-17T06:09:42.454Z,1545.9
2022-08-17T06:10:42.470Z,1546
2022-08-17T06:11:42.449Z,1546.1
2022-08-17T06:12:42.460Z,1546.3
2022-08-17T06:13:42.448Z,1546.4
2022-08-17T06:14:42.458Z,1546.5
2022-08-17T06:15:42.454Z,1546.5
2022-08-17T06:16:42.459Z,1546.8
2022-08-17T06:17:42.457Z,1546.8
2022-08-17T06:18:42.453Z,1546.8
2022-08-17T06:19:42.471Z,1547
2022-08-17T06:20:42.461Z,1547.1
2022-08-17T06:21:42.477Z,1547.3
2022-08-17T06:22:42.455Z,1547.1
2022-08-17T06:23:42.472Z,1547.1
2022-08-17T06:24:42.458Z,1547.1
2022-08-17T06:25:42.459Z,1547.3
2022-08-17T06:26:43.501Z,1547.4
2022-08-17T06:27:42.466Z,1547.4
2022-08-17T06:28:42.467Z,1547.3
2022-08-17T06:29:42.462Z,1547.3
2022-08-17T06:31:00.272Z,1547.6
2022-08-17T06:31:42.465Z,1547.9
2022-08-17T06:33:42.468Z,1547.8
2022-08-17T06:34:42.463Z,1548
2022-08-17T06:35:42.532Z,1548
2022-08-17T06:36:42.469Z,1548.2
2022-08-17T06:37:42.464Z,1548.3
2022-08-17T06:38:42.472Z,1548.4
2022-08-17T06:39:42.533Z,1548.2
2022-08-17T06:40:42.471Z,1548.5
2022-08-17T06:41:42.490Z,1548.5
2022-08-17T06:43:00.850Z,1548.5
2022-08-17T06:43:47.442Z,1548.5
2022-08-17T06:44:50.823Z,1548.4
2022-08-17T06:45:42.479Z,1548.7
2022-08-17T06:46:42.472Z,1549
2022-08-17T06:47:42.475Z,1548.9
2022-08-17T06:48:42.472Z,1549
2022-08-17T06:49:42.478Z,1548.5
2022-08-17T06:50:42.477Z,1548.4
2022-08-17T06:51:42.470Z,1548.9
2022-08-17T06:52:46.588Z,1548.9
2022-08-17T06:53:42.479Z,1548.8
2022-08-17T06:54:42.469Z,1549.2
2022-08-17T06:55:42.479Z,1548.8
2022-08-17T06:56:53.835Z,1549
2022-08-17T06:57:42.481Z,1548.9
2022-08-17T06:58:42.478Z,1548.2
2022-08-17T06:59:55.777Z,1547.7
2022-08-17T07:00:42.547Z,1547.7
2022-08-17T07:01:42.484Z,1548
2022-08-17T07:02:52.281Z,1548
2022-08-17T07:03:42.483Z,1547.9
2022-08-17T07:04:42.480Z,1548.6
2022-08-17T07:05:42.487Z,1548.9
2022-08-17T07:06:42.484Z,1548.9
2022-08-17T07:07:42.491Z,1548.9
2022-08-17T07:08:42.485Z,1548.9
2022-08-17T07:09:42.484Z,1548.8
2022-08-17T07:10:42.489Z,1548.2
2022-08-17T07:11:42.503Z,1548.8
2022-08-17T07:12:42.550Z,1548.8
2022-08-17T07:13:42.484Z,1549.2
2022-08-17T07:15:42.494Z,1549
2022-08-17T07:16:42.502Z,1549
2022-08-17T07:17:47.588Z,1549.3
2022-08-17T07:18:42.493Z,1549.4
2022-08-17T07:19:42.486Z,1549.6
2022-08-17T07:20:42.494Z,1549.7
2022-08-17T07:21:42.500Z,1549.8
2022-08-17T07:22:57.613Z,1549.6
2022-08-17T07:23:42.491Z,1549.6
2022-08-17T07:24:42.485Z,1549.7
2022-08-17T07:25:42.484Z,1549.2
2022-08-17T07:26:42.487Z,1549.2
2022-08-17T07:27:42.490Z,1549.4
2022-08-17T07:28:42.493Z,1549.5
2022-08-17T07:29:42.490Z,1550
2022-08-17T07:31:42.498Z,1549.8
2022-08-17T07:32:42.491Z,1549.9
2022-08-17T07:33:42.491Z,1549.9
2022-08-17T07:34:42.497Z,1550
2022-08-17T07:35:44.034Z,1549.9
2022-08-17T07:36:42.494Z,1550.3
2022-08-17T07:37:42.546Z,1550.5
2022-08-17T07:38:42.491Z,1550.6
2022-08-17T07:39:58.874Z,1550
2022-08-17T07:40:42.539Z,1550.3
2022-08-17T07:41:57.555Z,1550.2
2022-08-17T07:42:45.111Z,1550.5
2022-08-17T07:43:42.502Z,1550.9
2022-08-17T07:44:42.497Z,1550.7
2022-08-17T07:45:42.499Z,1550.7
2022-08-17T07:46:42.496Z,1550.2
2022-08-17T07:47:42.501Z,1550.4
2022-08-17T07:48:42.499Z,1550.7
2022-08-17T07:49:42.502Z,1550.4
2022-08-17T07:50:42.503Z,1550.7
2022-08-17T07:51:42.503Z,1550.7
2022-08-17T07:52:51.828Z,1550.7
2022-08-17T07:53:42.518Z,1550.6
2022-08-17T07:54:42.501Z,1550.9
2022-08-17T07:55:42.498Z,1550.6
2022-08-17T07:57:42.508Z,1550.8
2022-08-17T07:58:42.509Z,1550.8
2022-08-17T07:59:43.338Z,1550.2
2022-08-17T08:00:42.516Z,1550.3
2022-08-17T08:01:42.653Z,1550.4
2022-08-17T08:02:42.506Z,1550.7
2022-08-17T08:03:42.511Z,1550.5
2022-08-17T08:04:59.878Z,1550.3
2022-08-17T08:05:49.980Z,1550.7
2022-08-17T08:06:42.514Z,1551.3
2022-08-17T08:08:42.621Z,1550.8
2022-08-17T08:09:42.518Z,1551.1
2022-08-17T08:10:42.541Z,1551.9
2022-08-17T08:12:42.516Z,1552.2
2022-08-17T08:13:42.797Z,1552.6
2022-08-17T08:14:42.520Z,1552.8
2022-08-17T08:15:45.161Z,1553.2
2022-08-17T08:16:42.518Z,1553.3
2022-08-17T08:18:55.781Z,1552.6
2022-08-17T08:19:42.521Z,1553
2022-08-17T08:20:52.306Z,1552.4
2022-08-17T08:21:42.513Z,1552.5
2022-08-17T08:22:42.519Z,1553
2022-08-17T08:23:42.520Z,1553.5
2022-08-17T08:24:42.514Z,1554
2022-08-17T08:25:42.518Z,1554.6
2022-08-17T08:26:42.519Z,1554.9
2022-08-17T08:27:42.521Z,1554.8
2022-08-17T08:28:42.520Z,1554.9
2022-08-17T08:29:42.524Z,1555.2
2022-08-17T08:30:42.520Z,1555.3
2022-08-17T08:31:42.647Z,1555.3
2022-08-17T08:32:42.523Z,1555
2022-08-17T08:33:42.523Z,1554.9
2022-08-17T08:36:57.082Z,1554
2022-08-17T08:37:43.090Z,1553
2022-08-17T08:38:42.524Z,1553.3
2022-08-17T08:39:42.612Z,1553.2
2022-08-17T08:40:42.544Z,1552.7
2022-08-17T08:41:42.524Z,1552.3
2022-08-17T08:42:42.531Z,1552.4
2022-08-17T08:43:42.536Z,1552.3
2022-08-17T08:45:00.472Z,1551.9
2022-08-17T08:45:42.533Z,1552
2022-08-17T08:46:42.540Z,1552.1
2022-08-17T08:47:42.537Z,1552
2022-08-17T08:48:53.691Z,1552.4
2022-08-17T08:50:03.531Z,1552.7
2022-08-17T08:50:42.542Z,1553.1
2022-08-17T08:51:42.543Z,1553.4
2022-08-17T08:52:42.531Z,1553
2022-08-17T08:53:42.542Z,1553.2
2022-08-17T08:54:42.536Z,1553.4
2022-08-17T08:55:42.537Z,1553.5
2022-08-17T08:56:58.992Z,1554
2022-08-17T08:57:42.548Z,1554.1
2022-08-17T08:58:42.859Z,1554.3
2022-08-17T08:59:42.537Z,1554
2022-08-17T09:00:42.539Z,1554.3
2022-08-17T09:01:42.607Z,1554.1
2022-08-17T09:02:42.541Z,1554.1
2022-08-17T09:03:52.166Z,1553.6
2022-08-17T09:05:10.349Z,1554.3
2022-08-17T09:05:42.548Z,1554.8
2022-08-17T09:06:42.542Z,1554.9
2022-08-17T09:07:42.548Z,1554.9
2022-08-17T09:09:42.546Z,1553.9
2022-08-17T09:10:42.556Z,1554.2
2022-08-17T09:12:01.923Z,1554.3
2022-08-17T09:12:42.551Z,1554.5
2022-08-17T09:13:42.539Z,1554.7
2022-08-17T09:14:45.361Z,1554.5
2022-08-17T09:15:42.546Z,1554.7
2022-08-17T09:17:42.546Z,1554
2022-08-17T09:19:02.745Z,1554.1
2022-08-17T09:19:42.554Z,1554.6
2022-08-17T09:20:45.352Z,1554.7
2022-08-17T09:21:48.213Z,1554.5
2022-08-17T09:22:42.558Z,1554.7
2022-08-17T09:23:42.548Z,1553.8
2022-08-17T09:25:42.553Z,1553.5
2022-08-17T09:35:42.571Z,1553.5
2022-08-17T09:41:48.898Z,1553.7
2022-08-17T09:42:42.561Z,1553.4
2022-08-17T09:43:42.563Z,1553.4
2022-08-17T09:44:42.567Z,1552.9
2022-08-17T09:45:42.564Z,1552.7
2022-08-17T09:46:42.560Z,1552.9
2022-08-17T09:47:42.557Z,1553.2
2022-08-17T09:48:42.566Z,1553.8
2022-08-17T09:49:42.563Z,1554.2
2022-08-17T09:51:04.093Z,1554.4
2022-08-17T09:51:42.617Z,1554.9
2022-08-17T09:52:42.573Z,1555.1
2022-08-17T09:53:44.691Z,1555.4
2022-08-17T09:54:42.570Z,1555.7
2022-08-17T09:56:46.373Z,1555.5
2022-08-17T09:57:42.567Z,1555.6
2022-08-17T09:58:42.569Z,1555.8
2022-08-17T09:59:42.568Z,1555.6
2022-08-17T10:00:42.568Z,1555.2
2022-08-17T10:01:42.703Z,1555.1
2022-08-17T10:02:42.576Z,1555.2
2022-08-17T10:03:42.576Z,1555.1
2022-08-17T10:04:42.574Z,1555
2022-08-17T10:05:42.574Z,1554.8
2022-08-17T10:06:42.568Z,1554.7
2022-08-17T10:07:42.584Z,1554.9
2022-08-17T10:08:42.575Z,1555
2022-08-17T10:09:42.583Z,1555.2
2022-08-17T10:10:42.574Z,1555.1
2022-08-17T10:11:45.699Z,1555.3
2022-08-17T10:12:46.513Z,1554.7
2022-08-17T10:13:52.748Z,1555
2022-08-17T10:14:44.218Z,1555.3
2022-08-17T10:15:42.791Z,1554.3
2022-08-17T10:16:42.593Z,1554.7
2022-08-17T10:17:42.580Z,1554.3
2022-08-17T10:18:42.585Z,1554.8
2022-08-17T10:19:44.132Z,1554.9
2022-08-17T10:20:42.589Z,1555
2022-08-17T10:22:42.578Z,1555
2022-08-17T10:23:42.582Z,1555.4
2022-08-17T10:25:21.386Z,1555
2022-08-17T10:25:54.034Z,1554.3
2022-08-17T10:26:54.165Z,1554
2022-08-17T10:27:42.586Z,1554
2022-08-17T10:28:42.590Z,1553.7
2022-08-17T10:29:48.958Z,1553.7
2022-08-17T10:30:42.594Z,1553.7
2022-08-17T10:31:42.583Z,1554.1
2022-08-17T10:32:42.586Z,1554.3
2022-08-17T10:33:42.590Z,1554.4
2022-08-17T10:35:42.590Z,1554
2022-08-17T10:36:42.589Z,1554.2
2022-08-17T10:37:42.589Z,1553.8
2022-08-17T10:38:42.592Z,1553.9
2022-08-17T10:39:50.370Z,1553.9
2022-08-17T10:40:42.593Z,1553.6
2022-08-17T10:41:42.584Z,1553.4
2022-08-17T10:42:42.607Z,1553.2
2022-08-17T10:44:42.606Z,1552.6
2022-08-17T10:45:42.593Z,1552.6
2022-08-17T10:46:42.586Z,1552.3
2022-08-17T10:47:55.243Z,1552.2
2022-08-17T10:48:42.599Z,1551.7
2022-08-17T10:49:42.598Z,1552
2022-08-17T10:50:42.599Z,1551.5
2022-08-17T10:51:42.597Z,1551.3
2022-08-17T10:52:42.598Z,1551.6
2022-08-17T10:53:42.598Z,1551.3
2022-08-17T10:54:42.600Z,1551.1
2022-08-17T10:55:42.605Z,1551.3
2022-08-17T10:56:42.596Z,1551.3
2022-08-17T10:57:42.596Z,1551.2
2022-08-17T10:58:42.604Z,1551.4
2022-08-17T10:59:42.614Z,1551.2
2022-08-17T11:00:42.681Z,1551
2022-08-17T11:01:42.601Z,1551.3
2022-08-17T11:02:42.611Z,1551.3
2022-08-17T11:03:42.609Z,1551.2
2022-08-17T11:04:42.602Z,1551.6
2022-08-17T11:05:43.984Z,1551.5
2022-08-17T11:06:42.613Z,1551.9
2022-08-17T11:07:42.604Z,1552
2022-08-17T11:08:42.608Z,1551.5
2022-08-17T11:09:42.613Z,1551.6
2022-08-17T11:10:42.606Z,1550.7
2022-08-17T11:11:42.608Z,1551.1
2022-08-17T11:12:42.623Z,1551.2
2022-08-17T11:13:42.617Z,1551.8
2022-08-17T11:14:42.617Z,1551.8
2022-08-17T11:15:42.628Z,1551.9
2022-08-17T11:16:42.606Z,1551.7
2022-08-17T11:17:42.607Z,1551.3
2022-08-17T11:18:42.618Z,1551.8
2022-08-17T11:19:42.610Z,1551.9
2022-08-17T11:20:42.620Z,1551.7
2022-08-17T11:21:42.614Z,1552.1
2022-08-17T11:22:42.615Z,1552
2022-08-17T11:23:42.616Z,1552.3
2022-08-17T11:24:43.389Z,1552
2022-08-17T11:26:42.625Z,1551.7
2022-08-17T11:27:42.621Z,1551.4
2022-08-17T11:28:42.614Z,1551.3
2022-08-17T11:29:42.612Z,1551.5
2022-08-17T11:30:43.548Z,1551.7
2022-08-17T11:31:42.637Z,1552.1
2022-08-17T11:32:47.468Z,1551.6
2022-08-17T11:33:42.622Z,1550.8
2022-08-17T11:34:42.621Z,1550.7
2022-08-17T11:35:42.620Z,1551
2022-08-17T11:36:42.620Z,1551.5
2022-08-17T11:37:42.617Z,1551.6
2022-08-17T11:38:42.614Z,1551.3
2022-08-17T11:39:42.691Z,1551.2
2022-08-17T11:40:42.616Z,1551.2
2022-08-17T11:41:42.629Z,1551.5
2022-08-17T11:42:42.619Z,1551.6
2022-08-17T11:43:43.021Z,1551.4
2022-08-17T11:44:42.624Z,1551.3
2022-08-17T11:45:42.623Z,1551.4
2022-08-17T11:46:42.633Z,1551
2022-08-17T11:47:42.619Z,1550.9
2022-08-17T11:48:42.631Z,1550.5
2022-08-17T11:49:42.625Z,1550.2
2022-08-17T11:50:42.635Z,1550.7
2022-08-17T11:51:42.626Z,1550.7
2022-08-17T11:52:46.811Z,1550.7
2022-08-17T11:53:42.632Z,1551
2022-08-17T11:54:42.633Z,1551.3
2022-08-17T11:55:44.827Z,1551.7
2022-08-17T11:56:42.633Z,1551.9
2022-08-17T11:57:42.733Z,1552.4
2022-08-17T11:58:42.626Z,1552
2022-08-17T11:59:42.628Z,1552.3
2022-08-17T12:00:42.628Z,1552.4
2022-08-17T12:01:42.634Z,1552.9
2022-08-17T12:02:47.368Z,1552.6
2022-08-17T12:03:42.625Z,1552.7
2022-08-17T12:04:42.697Z,1552.6
2022-08-17T12:05:42.634Z,1552.4
2022-08-17T12:06:42.657Z,1552.5
2022-08-17T12:07:42.639Z,1552.6
2022-08-17T12:08:42.637Z,1553
2022-08-17T12:09:42.637Z,1553.2
2022-08-17T12:10:42.634Z,1553.5
2022-08-17T12:12:01.578Z,1553.5
2022-08-17T12:12:42.646Z,1554.2
2022-08-17T12:13:42.641Z,1554.3
2022-08-17T12:15:42.661Z,1554.5
2022-08-17T12:16:42.642Z,1553.7
2022-08-17T12:17:43.175Z,1554.3
2022-08-17T12:18:42.637Z,1553.6
2022-08-17T12:19:42.658Z,1554.2
2022-08-17T12:21:42.642Z,1553.3
2022-08-17T12:22:42.655Z,1554
2022-08-17T12:23:44.171Z,1553.7
2022-08-17T12:24:42.648Z,1554.3
2022-08-17T12:25:42.642Z,1554.7
2022-08-17T12:26:42.653Z,1555
2022-08-17T12:28:04.334Z,1555
2022-08-17T12:28:42.645Z,1554.6
2022-08-17T12:29:42.662Z,1554.7
2022-08-17T12:30:42.646Z,1555.1
2022-08-17T12:31:42.650Z,1555.2
2022-08-17T12:32:42.659Z,1555.2
2022-08-17T12:33:42.652Z,1555.5
2022-08-17T12:34:42.652Z,1555.5
2022-08-17T12:35:42.656Z,1555.6
2022-08-17T12:37:42.759Z,1555.9
2022-08-17T12:38:42.650Z,1555.5
2022-08-17T12:40:42.663Z,1556
2022-08-17T12:41:42.665Z,1556.1
2022-08-17T12:42:42.650Z,1555.9
2022-08-17T12:43:42.661Z,1556.5
2022-08-17T12:44:43.033Z,1556.5
2022-08-17T12:45:42.655Z,1556.9
2022-08-17T12:46:42.652Z,1556.8
2022-08-17T12:47:42.726Z,1557
2022-08-17T12:48:58.798Z,1556.5
2022-08-17T12:49:42.660Z,1556.1
2022-08-17T12:50:42.665Z,1556.1
2022-08-17T12:52:42.663Z,1555.8
2022-08-17T12:53:42.657Z,1556
2022-08-17T12:54:42.667Z,1556.3
2022-08-17T12:55:42.670Z,1556.6
2022-08-17T12:56:42.666Z,1556.9
2022-08-17T12:57:42.661Z,1557
2022-08-17T12:58:42.660Z,1557.1
2022-08-17T13:00:47.568Z,1557
2022-08-17T13:01:42.759Z,1556.8
2022-08-17T13:02:42.669Z,1556.7
2022-08-17T13:03:42.666Z,1556.7
2022-08-17T13:04:42.672Z,1556.6
2022-08-17T13:05:42.672Z,1556.5
2022-08-17T13:06:42.666Z,1555.7
2022-08-17T13:07:42.668Z,1555
2022-08-17T13:08:42.703Z,1555.4
2022-08-17T13:09:42.668Z,1556
2022-08-17T13:10:42.675Z,1555.9
2022-08-17T13:12:42.674Z,1554.7
2022-08-17T13:13:42.675Z,1555.2
2022-08-17T13:14:42.672Z,1555.5
2022-08-17T13:15:44.528Z,1555.9
2022-08-17T13:16:42.673Z,1556
2022-08-17T13:17:42.668Z,1556.1
2022-08-17T13:18:42.680Z,1555.7
2022-08-17T13:19:42.678Z,1555.9
2022-08-17T13:20:42.673Z,1556.1
2022-08-17T13:21:42.676Z,1556.6
2022-08-17T13:22:42.676Z,1556.2
2022-08-17T13:23:44.801Z,1556.1
2022-08-17T13:24:42.681Z,1556.8
2022-08-17T13:25:42.672Z,1556.7
2022-08-17T13:26:42.674Z,1556.2
2022-08-17T13:27:42.801Z,1555.4
2022-08-17T13:28:42.678Z,1554.7
2022-08-17T13:29:42.682Z,1555.1
2022-08-17T13:30:42.682Z,1554.8
2022-08-17T13:31:52.266Z,1554.9
2022-08-17T13:32:44.294Z,1554.9
2022-08-17T13:33:44.728Z,1554.2
2022-08-17T13:35:12.131Z,1554.9